sensor_id;sensor_type;location;lat;lon;timestamp;temperature;humidity
56076;DHT22;41951;49.022;12.066;2023-06-19T00:01:29;19.00;99.10
56076;DHT22;41951;49.022;12.066;2023-06-19T00:03:54;19.00;99.20
56076;DHT22;41951;49.022;12.066;2023-06-19T00:06:20;18.90;99.30
56076;DHT22;41951;49.022;12.066;2023-06-19T00:08:46;18.70;99.50
56076;DHT22;41951;49.022;12.066;2023-06-19T00:11:11;18.60;99.90
56076;DHT22;41951;49.022;12.066;2023-06-19T00:13:37;18.50;99.90
56076;DHT22;41951;49.022;12.066;2023-06-19T00:16:02;18.40;99.90
56076;DHT22;41951;49.022;12.066;2023-06-19T00:18:28;18.20;99.90
56076;DHT22;41951;49.022;12.066;2023-06-19T00:20:54;18.00;99.90
56076;DHT22;41951;49.022;12.066;2023-06-19T00:23:22;17.90;99.90
56076;DHT22;41951;49.022;12.066;2023-06-19T00:25:48;17.80;99.90
56076;DHT22;41951;49.022;12.066;2023-06-19T00:28:13;18.00;99.90
56076;DHT22;41951;49.022;12.066;2023-06-19T00:30:40;18.00;99.90
56076;DHT22;41951;49.022;12.066;2023-06-19T00:33:07;18.10;99.90
56076;DHT22;41951;49.022;12.066;2023-06-19T00:35:33;18.20;99.90
56076;DHT22;41951;49.022;12.066;2023-06-19T00:37:59;18.30;99.90
56076;DHT22;41951;49.022;12.066;2023-06-19T00:40:29;18.40;99.90
56076;DHT22;41951;49.022;12.066;2023-06-19T00:42:54;18.50;99.90
56076;DHT22;41951;49.022;12.066;2023-06-19T00:45:20;18.50;99.90
56076;DHT22;41951;49.022;12.066;2023-06-19T00:47:46;18.60;99.90
56076;DHT22;41951;49.022;12.066;2023-06-19T00:50:12;18.60;99.90
56076;DHT22;41951;49.022;12.066;2023-06-19T00:52:37;18.50;99.90
56076;DHT22;41951;49.022;12.066;2023-06-19T00:55:05;18.50;99.90
56076;DHT22;41951;49.022;12.066;2023-06-19T00:57:31;18.50;99.90
56076;DHT22;41951;49.022;12.066;2023-06-19T00:59:57;18.60;99.90
56076;DHT22;41951;49.022;12.066;2023-06-19T01:02:24;18.50;99.90
56076;DHT22;41951;49.022;12.066;2023-06-19T01:04:50;18.40;99.90
56076;DHT22;41951;49.022;12.066;2023-06-19T01:10:04;18.20;99.90
56076;DHT22;41951;49.022;12.066;2023-06-19T01:12:33;18.10;99.90
56076;DHT22;41951;49.022;12.066;2023-06-19T01:15:03;18.20;99.90
56076;DHT22;41951;49.022;12.066;2023-06-19T01:17:29;18.30;99.90
56076;DHT22;41951;49.022;12.066;2023-06-19T01:19:57;18.30;99.90
56076;DHT22;41951;49.022;12.066;2023-06-19T01:22:30;18.30;99.90
56076;DHT22;41951;49.022;12.066;2023-06-19T01:24:56;18.30;99.90
56076;DHT22;41951;49.022;12.066;2023-06-19T01:27:25;18.30;99.90
56076;DHT22;41951;49.022;12.066;2023-06-19T01:29:56;18.20;99.90
56076;DHT22;41951;49.022;12.066;2023-06-19T01:35:09;18.30;99.90
56076;DHT22;41951;49.022;12.066;2023-06-19T01:37:37;18.20;99.90
56076;DHT22;41951;49.022;12.066;2023-06-19T01:40:05;18.20;99.90
56076;DHT22;41951;49.022;12.066;2023-06-19T01:42:34;18.10;99.90
56076;DHT22;41951;49.022;12.066;2023-06-19T01:45:00;18.00;99.90
56076;DHT22;41951;49.022;12.066;2023-06-19T01:47:28;17.70;99.90
56076;DHT22;41951;49.022;12.066;2023-06-19T01:49:54;17.70;99.90
56076;DHT22;41951;49.022;12.066;2023-06-19T01:52:19;17.50;99.90
56076;DHT22;41951;49.022;12.066;2023-06-19T01:54:45;17.40;99.90
56076;DHT22;41951;49.022;12.066;2023-06-19T01:57:10;17.40;99.90
56076;DHT22;41951;49.022;12.066;2023-06-19T01:59:37;17.50;99.90
56076;DHT22;41951;49.022;12.066;2023-06-19T02:02:03;17.50;99.90
56076;DHT22;41951;49.022;12.066;2023-06-19T02:04:29;17.50;99.90
56076;DHT22;41951;49.022;12.066;2023-06-19T02:06:55;17.40;99.90
56076;DHT22;41951;49.022;12.066;2023-06-19T02:09:20;17.60;99.90
56076;DHT22;41951;49.022;12.066;2023-06-19T02:11:46;17.70;99.90
56076;DHT22;41951;49.022;12.066;2023-06-19T02:14:11;17.80;99.90
56076;DHT22;41951;49.022;12.066;2023-06-19T02:16:37;17.90;99.90
56076;DHT22;41951;49.022;12.066;2023-06-19T02:19:03;18.10;99.90
56076;DHT22;41951;49.022;12.066;2023-06-19T02:21:28;18.10;99.90
56076;DHT22;41951;49.022;12.066;2023-06-19T02:23:54;18.10;99.90
56076;DHT22;41951;49.022;12.066;2023-06-19T02:26:20;18.10;99.90
56076;DHT22;41951;49.022;12.066;2023-06-19T02:28:46;18.10;99.90
56076;DHT22;41951;49.022;12.066;2023-06-19T02:31:11;17.90;99.90
56076;DHT22;41951;49.022;12.066;2023-06-19T02:33:37;17.70;99.90
56076;DHT22;41951;49.022;12.066;2023-06-19T02:36:02;17.60;99.90
56076;DHT22;41951;49.022;12.066;2023-06-19T02:38:29;17.60;99.90
56076;DHT22;41951;49.022;12.066;2023-06-19T02:40:55;17.50;99.90
56076;DHT22;41951;49.022;12.066;2023-06-19T02:43:22;17.50;99.90
56076;DHT22;41951;49.022;12.066;2023-06-19T02:45:48;17.50;99.90
56076;DHT22;41951;49.022;12.066;2023-06-19T02:48:14;17.60;99.90
56076;DHT22;41951;49.022;12.066;2023-06-19T02:50:39;17.70;99.90
56076;DHT22;41951;49.022;12.066;2023-06-19T02:53:05;17.80;99.90
56076;DHT22;41951;49.022;12.066;2023-06-19T02:55:30;17.90;99.90
56076;DHT22;41951;49.022;12.066;2023-06-19T02:57:56;18.00;99.90
56076;DHT22;41951;49.022;12.066;2023-06-19T03:00:22;18.10;99.90
56076;DHT22;41951;49.022;12.066;2023-06-19T03:02:47;18.20;99.90
56076;DHT22;41951;49.022;12.066;2023-06-19T03:05:14;18.20;99.90
56076;DHT22;41951;49.022;12.066;2023-06-19T03:07:42;18.30;99.90
56076;DHT22;41951;49.022;12.066;2023-06-19T03:10:08;18.20;99.90
56076;DHT22;41951;49.022;12.066;2023-06-19T03:12:34;18.10;99.90
56076;DHT22;41951;49.022;12.066;2023-06-19T03:14:59;18.00;99.90
56076;DHT22;41951;49.022;12.066;2023-06-19T03:17:25;17.90;99.90
56076;DHT22;41951;49.022;12.066;2023-06-19T03:19:51;17.80;99.90
56076;DHT22;41951;49.022;12.066;2023-06-19T03:22:19;17.70;99.90
56076;DHT22;41951;49.022;12.066;2023-06-19T03:24:44;17.60;99.90
56076;DHT22;41951;49.022;12.066;2023-06-19T03:27:10;17.70;99.90
56076;DHT22;41951;49.022;12.066;2023-06-19T03:29:35;17.70;99.90
56076;DHT22;41951;49.022;12.066;2023-06-19T03:32:01;17.80;99.90
56076;DHT22;41951;49.022;12.066;2023-06-19T03:34:26;17.90;99.90
56076;DHT22;41951;49.022;12.066;2023-06-19T03:36:52;18.00;99.90
56076;DHT22;41951;49.022;12.066;2023-06-19T03:39:18;17.90;99.90
56076;DHT22;41951;49.022;12.066;2023-06-19T03:41:43;17.90;99.90
56076;DHT22;41951;49.022;12.066;2023-06-19T03:44:09;18.00;99.90
56076;DHT22;41951;49.022;12.066;2023-06-19T03:46:34;18.00;99.90
56076;DHT22;41951;49.022;12.066;2023-06-19T03:49:00;18.00;99.90
56076;DHT22;41951;49.022;12.066;2023-06-19T03:51:26;18.10;99.90
56076;DHT22;41951;49.022;12.066;2023-06-19T03:53:54;18.10;99.90
56076;DHT22;41951;49.022;12.066;2023-06-19T03:56:19;17.90;99.90
56076;DHT22;41951;49.022;12.066;2023-06-19T03:58:45;17.90;99.90
56076;DHT22;41951;49.022;12.066;2023-06-19T04:01:10;18.00;99.90
56076;DHT22;41951;49.022;12.066;2023-06-19T04:03:36;18.00;99.90
56076;DHT22;41951;49.022;12.066;2023-06-19T04:06:02;18.20;99.90
56076;DHT22;41951;49.022;12.066;2023-06-19T04:08:27;18.10;99.90
56076;DHT22;41951;49.022;12.066;2023-06-19T04:10:53;18.20;99.90
56076;DHT22;41951;49.022;12.066;2023-06-19T04:13:18;18.30;99.90
56076;DHT22;41951;49.022;12.066;2023-06-19T04:15:44;18.20;99.90
56076;DHT22;41951;49.022;12.066;2023-06-19T04:18:10;18.20;99.90
56076;DHT22;41951;49.022;12.066;2023-06-19T04:20:35;18.20;99.90
56076;DHT22;41951;49.022;12.066;2023-06-19T04:23:01;18.10;99.90
56076;DHT22;41951;49.022;12.066;2023-06-19T04:25:27;18.20;99.90
56076;DHT22;41951;49.022;12.066;2023-06-19T04:27:52;18.30;99.90
56076;DHT22;41951;49.022;12.066;2023-06-19T04:30:18;18.40;99.90
56076;DHT22;41951;49.022;12.066;2023-06-19T04:32:46;18.40;99.90
56076;DHT22;41951;49.022;12.066;2023-06-19T04:35:12;18.40;99.90
56076;DHT22;41951;49.022;12.066;2023-06-19T04:37:37;18.50;99.90
56076;DHT22;41951;49.022;12.066;2023-06-19T04:40:03;18.50;99.90
56076;DHT22;41951;49.022;12.066;2023-06-19T04:42:29;18.50;99.90
56076;DHT22;41951;49.022;12.066;2023-06-19T04:44:55;18.50;99.90
56076;DHT22;41951;49.022;12.066;2023-06-19T04:47:23;18.60;99.90
56076;DHT22;41951;49.022;12.066;2023-06-19T04:49:48;18.70;99.90
56076;DHT22;41951;49.022;12.066;2023-06-19T04:52:14;18.70;99.90
56076;DHT22;41951;49.022;12.066;2023-06-19T04:54:40;18.80;99.90
56076;DHT22;41951;49.022;12.066;2023-06-19T04:57:05;18.80;99.90
56076;DHT22;41951;49.022;12.066;2023-06-19T04:59:32;18.90;99.90
56076;DHT22;41951;49.022;12.066;2023-06-19T05:01:58;19.00;99.90
56076;DHT22;41951;49.022;12.066;2023-06-19T05:04:24;19.10;99.90
56076;DHT22;41951;49.022;12.066;2023-06-19T05:06:50;19.00;99.90
56076;DHT22;41951;49.022;12.066;2023-06-19T05:09:16;19.00;99.90
56076;DHT22;41951;49.022;12.066;2023-06-19T05:11:42;19.20;99.90
56076;DHT22;41951;49.022;12.066;2023-06-19T05:14:07;19.30;99.90
56076;DHT22;41951;49.022;12.066;2023-06-19T05:16:36;19.30;99.90
56076;DHT22;41951;49.022;12.066;2023-06-19T05:19:01;19.40;99.90
56076;DHT22;41951;49.022;12.066;2023-06-19T05:21:27;19.40;99.90
56076;DHT22;41951;49.022;12.066;2023-06-19T05:23:53;19.50;99.90
56076;DHT22;41951;49.022;12.066;2023-06-19T05:26:21;19.60;99.90
56076;DHT22;41951;49.022;12.066;2023-06-19T05:28:48;19.60;99.90
56076;DHT22;41951;49.022;12.066;2023-06-19T05:31:13;19.70;99.90
56076;DHT22;41951;49.022;12.066;2023-06-19T05:33:40;19.80;99.90
56076;DHT22;41951;49.022;12.066;2023-06-19T05:36:06;19.80;99.90
56076;DHT22;41951;49.022;12.066;2023-06-19T05:38:32;19.90;99.90
56076;DHT22;41951;49.022;12.066;2023-06-19T05:40:57;19.90;99.90
56076;DHT22;41951;49.022;12.066;2023-06-19T05:43:23;19.90;99.90
56076;DHT22;41951;49.022;12.066;2023-06-19T05:45:50;19.90;99.90
56076;DHT22;41951;49.022;12.066;2023-06-19T05:48:15;19.90;99.90
56076;DHT22;41951;49.022;12.066;2023-06-19T05:50:41;19.90;99.90
56076;DHT22;41951;49.022;12.066;2023-06-19T05:53:07;19.90;99.90
56076;DHT22;41951;49.022;12.066;2023-06-19T05:55:32;19.90;99.90
56076;DHT22;41951;49.022;12.066;2023-06-19T05:57:58;20.00;99.90
56076;DHT22;41951;49.022;12.066;2023-06-19T06:00:23;20.00;99.90
56076;DHT22;41951;49.022;12.066;2023-06-19T06:02:49;20.10;99.90
56076;DHT22;41951;49.022;12.066;2023-06-19T06:05:17;20.20;99.90
56076;DHT22;41951;49.022;12.066;2023-06-19T06:07:44;20.20;99.90
56076;DHT22;41951;49.022;12.066;2023-06-19T06:10:10;20.30;99.90
56076;DHT22;41951;49.022;12.066;2023-06-19T06:12:36;20.30;99.90
56076;DHT22;41951;49.022;12.066;2023-06-19T06:15:03;20.40;99.90
56076;DHT22;41951;49.022;12.066;2023-06-19T06:17:29;20.40;99.90
56076;DHT22;41951;49.022;12.066;2023-06-19T06:19:55;20.50;99.90
56076;DHT22;41951;49.022;12.066;2023-06-19T06:22:20;20.50;99.90
56076;DHT22;41951;49.022;12.066;2023-06-19T06:24:46;20.50;99.90
56076;DHT22;41951;49.022;12.066;2023-06-19T06:27:12;20.50;99.90
56076;DHT22;41951;49.022;12.066;2023-06-19T06:29:38;20.50;99.90
56076;DHT22;41951;49.022;12.066;2023-06-19T06:32:08;20.40;99.90
56076;DHT22;41951;49.022;12.066;2023-06-19T06:34:34;20.50;99.90
56076;DHT22;41951;49.022;12.066;2023-06-19T06:37:00;20.50;99.90
56076;DHT22;41951;49.022;12.066;2023-06-19T06:39:26;20.50;99.90
56076;DHT22;41951;49.022;12.066;2023-06-19T06:41:52;20.60;99.90
56076;DHT22;41951;49.022;12.066;2023-06-19T06:44:17;20.50;99.90
56076;DHT22;41951;49.022;12.066;2023-06-19T06:46:43;20.70;99.90
56076;DHT22;41951;49.022;12.066;2023-06-19T06:49:08;20.80;99.90
56076;DHT22;41951;49.022;12.066;2023-06-19T06:51:34;20.90;99.90
56076;DHT22;41951;49.022;12.066;2023-06-19T06:54:00;21.10;99.90
56076;DHT22;41951;49.022;12.066;2023-06-19T06:56:25;21.10;99.90
56076;DHT22;41951;49.022;12.066;2023-06-19T06:58:51;21.30;99.90
56076;DHT22;41951;49.022;12.066;2023-06-19T07:01:17;21.40;99.90
56076;DHT22;41951;49.022;12.066;2023-06-19T07:03:42;21.50;99.90
56076;DHT22;41951;49.022;12.066;2023-06-19T07:06:08;21.60;99.90
56076;DHT22;41951;49.022;12.066;2023-06-19T07:08:34;21.70;99.90
56076;DHT22;41951;49.022;12.066;2023-06-19T07:10:59;21.80;99.90
56076;DHT22;41951;49.022;12.066;2023-06-19T07:13:25;22.00;99.90
56076;DHT22;41951;49.022;12.066;2023-06-19T07:15:51;22.10;99.90
56076;DHT22;41951;49.022;12.066;2023-06-19T07:18:17;22.20;99.90
56076;DHT22;41951;49.022;12.066;2023-06-19T07:20:42;22.20;99.90
56076;DHT22;41951;49.022;12.066;2023-06-19T07:23:09;22.20;99.90
56076;DHT22;41951;49.022;12.066;2023-06-19T07:25:35;22.20;99.90
56076;DHT22;41951;49.022;12.066;2023-06-19T07:28:01;22.30;99.90
56076;DHT22;41951;49.022;12.066;2023-06-19T07:30:27;22.40;99.90
56076;DHT22;41951;49.022;12.066;2023-06-19T07:32:53;22.40;99.90
56076;DHT22;41951;49.022;12.066;2023-06-19T07:35:18;22.60;99.90
56076;DHT22;41951;49.022;12.066;2023-06-19T07:37:44;22.70;99.90
56076;DHT22;41951;49.022;12.066;2023-06-19T07:40:11;22.70;99.90
56076;DHT22;41951;49.022;12.066;2023-06-19T07:42:36;22.80;99.90
56076;DHT22;41951;49.022;12.066;2023-06-19T07:45:02;22.80;99.80
56076;DHT22;41951;49.022;12.066;2023-06-19T07:47:28;22.70;99.60
56076;DHT22;41951;49.022;12.066;2023-06-19T07:49:54;22.60;99.60
56076;DHT22;41951;49.022;12.066;2023-06-19T07:52:19;22.70;99.60
56076;DHT22;41951;49.022;12.066;2023-06-19T07:54:53;22.90;99.50
56076;DHT22;41951;49.022;12.066;2023-06-19T07:57:19;23.10;99.30
56076;DHT22;41951;49.022;12.066;2023-06-19T07:59:46;23.30;99.50
56076;DHT22;41951;49.022;12.066;2023-06-19T08:02:12;23.40;99.10
56076;DHT22;41951;49.022;12.066;2023-06-19T08:04:37;23.70;98.80
56076;DHT22;41951;49.022;12.066;2023-06-19T08:07:03;23.90;98.40
56076;DHT22;41951;49.022;12.066;2023-06-19T08:09:29;24.00;98.00
56076;DHT22;41951;49.022;12.066;2023-06-19T08:11:54;24.10;97.80
56076;DHT22;41951;49.022;12.066;2023-06-19T08:14:20;24.30;97.50
56076;DHT22;41951;49.022;12.066;2023-06-19T08:16:45;24.50;97.10
56076;DHT22;41951;49.022;12.066;2023-06-19T08:19:11;24.50;96.80
56076;DHT22;41951;49.022;12.066;2023-06-19T08:21:36;24.70;96.70
56076;DHT22;41951;49.022;12.066;2023-06-19T08:24:02;24.70;96.00
56076;DHT22;41951;49.022;12.066;2023-06-19T08:26:28;24.70;96.00
56076;DHT22;41951;49.022;12.066;2023-06-19T08:28:54;24.70;95.90
56076;DHT22;41951;49.022;12.066;2023-06-19T08:31:19;24.80;95.40
56076;DHT22;41951;49.022;12.066;2023-06-19T08:33:47;24.80;95.30
56076;DHT22;41951;49.022;12.066;2023-06-19T08:36:16;24.90;95.20
56076;DHT22;41951;49.022;12.066;2023-06-19T08:38:41;24.90;95.10
56076;DHT22;41951;49.022;12.066;2023-06-19T08:41:07;24.90;94.60
56076;DHT22;41951;49.022;12.066;2023-06-19T08:43:32;24.90;94.50
56076;DHT22;41951;49.022;12.066;2023-06-19T08:48:27;24.90;94.70
56076;DHT22;41951;49.022;12.066;2023-06-19T08:50:53;25.00;94.80
56076;DHT22;41951;49.022;12.066;2023-06-19T08:53:20;24.90;94.90
56076;DHT22;41951;49.022;12.066;2023-06-19T08:55:45;24.90;94.70
56076;DHT22;41951;49.022;12.066;2023-06-19T08:58:11;24.80;94.40
56076;DHT22;41951;49.022;12.066;2023-06-19T09:00:36;24.70;94.80
56076;DHT22;41951;49.022;12.066;2023-06-19T09:03:03;24.80;94.60
56076;DHT22;41951;49.022;12.066;2023-06-19T09:05:29;24.70;94.40
56076;DHT22;41951;49.022;12.066;2023-06-19T09:07:59;24.70;94.50
56076;DHT22;41951;49.022;12.066;2023-06-19T09:10:28;24.70;94.70
56076;DHT22;41951;49.022;12.066;2023-06-19T09:13:01;24.80;94.90
56076;DHT22;41951;49.022;12.066;2023-06-19T09:15:33;24.70;95.10
56076;DHT22;41951;49.022;12.066;2023-06-19T09:18:06;24.60;95.10
56076;DHT22;41951;49.022;12.066;2023-06-19T09:20:38;24.60;95.20
56076;DHT22;41951;49.022;12.066;2023-06-19T09:23:05;24.60;95.80
56076;DHT22;41951;49.022;12.066;2023-06-19T09:25:31;24.60;95.60
56076;DHT22;41951;49.022;12.066;2023-06-19T09:27:57;24.60;95.70
56076;DHT22;41951;49.022;12.066;2023-06-19T09:30:23;24.60;96.20
56076;DHT22;41951;49.022;12.066;2023-06-19T09:32:49;24.70;95.90
56076;DHT22;41951;49.022;12.066;2023-06-19T09:35:14;24.70;95.80
56076;DHT22;41951;49.022;12.066;2023-06-19T09:37:40;24.70;95.90
56076;DHT22;41951;49.022;12.066;2023-06-19T09:40:07;24.80;96.20
56076;DHT22;41951;49.022;12.066;2023-06-19T09:42:37;24.90;96.30
56076;DHT22;41951;49.022;12.066;2023-06-19T09:45:05;25.00;96.30
56076;DHT22;41951;49.022;12.066;2023-06-19T09:47:51;25.10;96.30
56076;DHT22;41951;49.022;12.066;2023-06-19T09:50:19;25.10;96.10
56076;DHT22;41951;49.022;12.066;2023-06-19T09:52:48;25.00;96.10
56076;DHT22;41951;49.022;12.066;2023-06-19T09:55:17;24.90;96.20
56076;DHT22;41951;49.022;12.066;2023-06-19T09:57:44;24.90;96.50
56076;DHT22;41951;49.022;12.066;2023-06-19T10:00:11;24.80;96.50
56076;DHT22;41951;49.022;12.066;2023-06-19T10:02:48;24.80;96.70
56076;DHT22;41951;49.022;12.066;2023-06-19T10:05:14;24.80;96.90
56076;DHT22;41951;49.022;12.066;2023-06-19T10:07:45;24.70;97.40
56076;DHT22;41951;49.022;12.066;2023-06-19T10:10:21;24.70;97.30
56076;DHT22;41951;49.022;12.066;2023-06-19T10:12:47;24.70;97.30
56076;DHT22;41951;49.022;12.066;2023-06-19T10:20:36;24.90;97.50
56076;DHT22;41951;49.022;12.066;2023-06-19T10:23:06;25.20;97.40
56076;DHT22;41951;49.022;12.066;2023-06-19T10:25:38;25.50;97.30
56076;DHT22;41951;49.022;12.066;2023-06-19T10:28:15;25.80;96.80
56076;DHT22;41951;49.022;12.066;2023-06-19T10:30:41;26.00;96.80
56076;DHT22;41951;49.022;12.066;2023-06-19T10:33:07;25.90;96.80
56076;DHT22;41951;49.022;12.066;2023-06-19T10:35:39;25.90;96.20
56076;DHT22;41951;49.022;12.066;2023-06-19T10:38:06;25.90;96.40
56076;DHT22;41951;49.022;12.066;2023-06-19T10:40:32;25.80;96.20
56076;DHT22;41951;49.022;12.066;2023-06-19T10:42:57;25.90;96.20
56076;DHT22;41951;49.022;12.066;2023-06-19T10:45:24;25.80;96.30
56076;DHT22;41951;49.022;12.066;2023-06-19T10:47:54;25.70;96.20
56076;DHT22;41951;49.022;12.066;2023-06-19T10:50:20;25.80;96.30
56076;DHT22;41951;49.022;12.066;2023-06-19T10:52:47;25.90;96.30
56076;DHT22;41951;49.022;12.066;2023-06-19T10:55:14;25.90;96.10
56076;DHT22;41951;49.022;12.066;2023-06-19T10:57:44;25.80;96.30
56076;DHT22;41951;49.022;12.066;2023-06-19T11:00:10;25.80;96.40
56076;DHT22;41951;49.022;12.066;2023-06-19T11:02:41;25.90;96.50
56076;DHT22;41951;49.022;12.066;2023-06-19T11:05:10;25.90;96.30
56076;DHT22;41951;49.022;12.066;2023-06-19T11:07:36;25.80;96.30
56076;DHT22;41951;49.022;12.066;2023-06-19T11:10:03;25.70;96.40
56076;DHT22;41951;49.022;12.066;2023-06-19T11:12:31;25.60;96.50
56076;DHT22;41951;49.022;12.066;2023-06-19T11:14:57;25.60;97.00
56076;DHT22;41951;49.022;12.066;2023-06-19T11:17:23;25.50;96.80
56076;DHT22;41951;49.022;12.066;2023-06-19T11:19:50;25.40;97.00
56076;DHT22;41951;49.022;12.066;2023-06-19T11:22:15;25.30;97.00
56076;DHT22;41951;49.022;12.066;2023-06-19T11:24:47;25.20;97.30
56076;DHT22;41951;49.022;12.066;2023-06-19T11:27:21;25.10;97.50
56076;DHT22;41951;49.022;12.066;2023-06-19T11:29:58;25.10;97.70
56076;DHT22;41951;49.022;12.066;2023-06-19T11:32:30;25.00;97.90
56076;DHT22;41951;49.022;12.066;2023-06-19T11:34:57;25.00;98.00
56076;DHT22;41951;49.022;12.066;2023-06-19T11:37:23;24.90;98.10
56076;DHT22;41951;49.022;12.066;2023-06-19T11:39:49;24.90;98.30
56076;DHT22;41951;49.022;12.066;2023-06-19T11:42:16;24.90;98.50
56076;DHT22;41951;49.022;12.066;2023-06-19T11:45:02;24.90;98.50
56076;DHT22;41951;49.022;12.066;2023-06-19T11:47:33;24.90;98.70
56076;DHT22;41951;49.022;12.066;2023-06-19T11:49:59;24.90;98.80
56076;DHT22;41951;49.022;12.066;2023-06-19T11:52:25;25.00;98.90
56076;DHT22;41951;49.022;12.066;2023-06-19T11:54:51;25.00;99.00
56076;DHT22;41951;49.022;12.066;2023-06-19T11:57:17;25.10;99.00
56076;DHT22;41951;49.022;12.066;2023-06-19T11:59:42;25.10;99.00
56076;DHT22;41951;49.022;12.066;2023-06-19T12:02:09;25.30;98.90
56076;DHT22;41951;49.022;12.066;2023-06-19T12:04:35;25.40;99.00
56076;DHT22;41951;49.022;12.066;2023-06-19T12:07:01;25.50;98.90
56076;DHT22;41951;49.022;12.066;2023-06-19T12:09:26;25.70;98.80
56076;DHT22;41951;49.022;12.066;2023-06-19T12:11:53;25.70;98.60
56076;DHT22;41951;49.022;12.066;2023-06-19T12:14:18;25.80;98.30
56076;DHT22;41951;49.022;12.066;2023-06-19T12:16:48;26.00;97.80
56076;DHT22;41951;49.022;12.066;2023-06-19T12:19:13;26.00;97.70
56076;DHT22;41951;49.022;12.066;2023-06-19T12:21:39;26.00;97.60
56076;DHT22;41951;49.022;12.066;2023-06-19T12:24:05;26.10;97.40
56076;DHT22;41951;49.022;12.066;2023-06-19T12:26:32;26.10;97.40
56076;DHT22;41951;49.022;12.066;2023-06-19T12:29:03;26.20;97.40
56076;DHT22;41951;49.022;12.066;2023-06-19T12:31:29;26.50;97.10
56076;DHT22;41951;49.022;12.066;2023-06-19T12:33:55;26.70;96.60
56076;DHT22;41951;49.022;12.066;2023-06-19T12:36:20;26.90;96.00
56076;DHT22;41951;49.022;12.066;2023-06-19T12:38:46;27.20;95.70
56076;DHT22;41951;49.022;12.066;2023-06-19T12:41:14;27.20;94.90
56076;DHT22;41951;49.022;12.066;2023-06-19T12:43:40;27.50;94.60
56076;DHT22;41951;49.022;12.066;2023-06-19T12:46:06;27.70;94.40
56076;DHT22;41951;49.022;12.066;2023-06-19T12:48:32;27.90;93.20
56076;DHT22;41951;49.022;12.066;2023-06-19T12:50:58;28.10;93.30
56076;DHT22;41951;49.022;12.066;2023-06-19T12:53:23;28.20;93.20
56076;DHT22;41951;49.022;12.066;2023-06-19T12:55:52;28.50;92.90
56076;DHT22;41951;49.022;12.066;2023-06-19T12:58:20;28.80;92.20
56076;DHT22;41951;49.022;12.066;2023-06-19T13:00:46;28.90;91.80
56076;DHT22;41951;49.022;12.066;2023-06-19T13:03:13;29.00;91.60
56076;DHT22;41951;49.022;12.066;2023-06-19T13:05:39;29.10;91.00
56076;DHT22;41951;49.022;12.066;2023-06-19T13:08:04;29.00;90.70
56076;DHT22;41951;49.022;12.066;2023-06-19T13:10:30;29.00;90.30
56076;DHT22;41951;49.022;12.066;2023-06-19T13:12:56;29.10;90.30
56076;DHT22;41951;49.022;12.066;2023-06-19T13:15:24;29.30;90.10
56076;DHT22;41951;49.022;12.066;2023-06-19T13:17:50;29.60;89.70
56076;DHT22;41951;49.022;12.066;2023-06-19T13:20:15;29.80;89.40
56076;DHT22;41951;49.022;12.066;2023-06-19T13:22:41;30.10;88.80
56076;DHT22;41951;49.022;12.066;2023-06-19T13:25:07;30.40;88.20
56076;DHT22;41951;49.022;12.066;2023-06-19T13:27:33;30.30;86.50
56076;DHT22;41951;49.022;12.066;2023-06-19T13:30:00;30.30;85.40
56076;DHT22;41951;49.022;12.066;2023-06-19T13:32:26;30.40;84.50
56076;DHT22;41951;49.022;12.066;2023-06-19T13:34:51;30.50;83.20
56076;DHT22;41951;49.022;12.066;2023-06-19T13:37:18;30.60;83.30
56076;DHT22;41951;49.022;12.066;2023-06-19T13:39:45;30.80;83.10
56076;DHT22;41951;49.022;12.066;2023-06-19T13:42:10;30.80;81.60
56076;DHT22;41951;49.022;12.066;2023-06-19T13:44:37;30.60;81.80
56076;DHT22;41951;49.022;12.066;2023-06-19T13:47:03;30.80;82.10
56076;DHT22;41951;49.022;12.066;2023-06-19T13:49:29;31.00;82.00
56076;DHT22;41951;49.022;12.066;2023-06-19T13:51:55;31.20;80.70
56076;DHT22;41951;49.022;12.066;2023-06-19T13:54:21;31.30;79.80
56076;DHT22;41951;49.022;12.066;2023-06-19T13:56:47;31.20;78.60
56076;DHT22;41951;49.022;12.066;2023-06-19T13:59:14;30.90;78.80
56076;DHT22;41951;49.022;12.066;2023-06-19T14:01:39;30.90;78.90
56076;DHT22;41951;49.022;12.066;2023-06-19T14:04:06;30.80;78.90
56076;DHT22;41951;49.022;12.066;2023-06-19T14:06:32;30.70;78.70
56076;DHT22;41951;49.022;12.066;2023-06-19T14:08:58;30.90;78.50
56076;DHT22;41951;49.022;12.066;2023-06-19T14:11:23;31.10;78.30
56076;DHT22;41951;49.022;12.066;2023-06-19T14:13:49;31.20;78.30
56076;DHT22;41951;49.022;12.066;2023-06-19T14:16:15;31.30;78.40
56076;DHT22;41951;49.022;12.066;2023-06-19T14:18:41;31.50;78.50
56076;DHT22;41951;49.022;12.066;2023-06-19T14:21:06;31.70;78.30
56076;DHT22;41951;49.022;12.066;2023-06-19T14:23:32;31.60;78.10
56076;DHT22;41951;49.022;12.066;2023-06-19T14:25:59;31.80;77.90
56076;DHT22;41951;49.022;12.066;2023-06-19T14:28:25;31.90;77.80
56076;DHT22;41951;49.022;12.066;2023-06-19T14:30:50;32.00;77.10
56076;DHT22;41951;49.022;12.066;2023-06-19T14:33:16;32.00;77.60
56076;DHT22;41951;49.022;12.066;2023-06-19T14:35:42;32.10;76.80
56076;DHT22;41951;49.022;12.066;2023-06-19T14:38:13;32.20;76.60
56076;DHT22;41951;49.022;12.066;2023-06-19T14:40:42;32.40;76.40
56076;DHT22;41951;49.022;12.066;2023-06-19T14:43:08;32.50;76.20
56076;DHT22;41951;49.022;12.066;2023-06-19T14:45:35;32.80;75.50
56076;DHT22;41951;49.022;12.066;2023-06-19T14:48:01;33.00;75.40
56076;DHT22;41951;49.022;12.066;2023-06-19T14:50:26;33.20;74.30
56076;DHT22;41951;49.022;12.066;2023-06-19T14:52:52;32.90;73.80
56076;DHT22;41951;49.022;12.066;2023-06-19T14:55:17;32.90;74.10
56076;DHT22;41951;49.022;12.066;2023-06-19T14:57:43;32.40;73.60
56076;DHT22;41951;49.022;12.066;2023-06-19T15:00:09;32.00;74.40
56076;DHT22;41951;49.022;12.066;2023-06-19T15:02:35;32.10;74.80
56076;DHT22;41951;49.022;12.066;2023-06-19T15:05:01;32.20;74.70
56076;DHT22;41951;49.022;12.066;2023-06-19T15:07:26;32.40;74.50
56076;DHT22;41951;49.022;12.066;2023-06-19T15:09:52;32.70;74.60
56076;DHT22;41951;49.022;12.066;2023-06-19T15:12:17;32.70;74.20
56076;DHT22;41951;49.022;12.066;2023-06-19T15:14:43;32.70;74.10
56076;DHT22;41951;49.022;12.066;2023-06-19T15:17:09;32.60;74.10
56076;DHT22;41951;49.022;12.066;2023-06-19T15:19:35;32.70;74.20
56076;DHT22;41951;49.022;12.066;2023-06-19T15:22:00;32.70;74.00
56076;DHT22;41951;49.022;12.066;2023-06-19T15:24:26;33.10;73.70